sensor_id;sensor_type;location;lat;lon;timestamp;P1;durP1;ratioP1;P2;durP2;ratioP2
53843;SDS011;39744;53.314;5.710;2023-09-08T00:02:09;12.48;;;10.32;;
53843;SDS011;39744;53.314;5.710;2023-09-08T00:04:35;12.63;;;10.02;;
53843;SDS011;39744;53.314;5.710;2023-09-08T00:07:01;13.25;;;10.65;;
53843;SDS011;39744;53.314;5.710;2023-09-08T00:09:27;11.65;;;9.98;;
53843;SDS011;39744;53.314;5.710;2023-09-08T00:11:52;13.05;;;9.70;;
53843;SDS011;39744;53.314;5.710;2023-09-08T00:14:19;14.70;;;10.48;;
53843;SDS011;39744;53.314;5.710;2023-09-08T00:16:47;13.70;;;9.90;;
53843;SDS011;39744;53.314;5.710;2023-09-08T00:19:13;11.98;;;10.55;;
53843;SDS011;39744;53.314;5.710;2023-09-08T00:21:40;13.23;;;10.65;;
53843;SDS011;39744;53.314;5.710;2023-09-08T00:24:08;12.32;;;10.10;;
53843;SDS011;39744;53.314;5.710;2023-09-08T00:26:34;14.25;;;10.15;;
53843;SDS011;39744;53.314;5.710;2023-09-08T00:28:59;10.65;;;9.55;;
53843;SDS011;39744;53.314;5.710;2023-09-08T00:31:25;12.57;;;10.70;;
53843;SDS011;39744;53.314;5.710;2023-09-08T00:33:51;15.68;;;10.23;;
53843;SDS011;39744;53.314;5.710;2023-09-08T00:36:16;13.35;;;11.00;;
53843;SDS011;39744;53.314;5.710;2023-09-08T00:38:44;14.00;;;10.82;;
53843;SDS011;39744;53.314;5.710;2023-09-08T00:41:09;12.60;;;10.00;;
53843;SDS011;39744;53.314;5.710;2023-09-08T00:43:35;13.30;;;10.70;;
53843;SDS011;39744;53.314;5.710;2023-09-08T00:46:01;15.02;;;10.60;;
53843;SDS011;39744;53.314;5.710;2023-09-08T00:48:28;13.07;;;10.18;;
53843;SDS011;39744;53.314;5.710;2023-09-08T00:50:55;15.75;;;10.73;;
53843;SDS011;39744;53.314;5.710;2023-09-08T00:53:22;12.07;;;10.77;;
53843;SDS011;39744;53.314;5.710;2023-09-08T00:55:48;13.15;;;10.60;;
53843;SDS011;39744;53.314;5.710;2023-09-08T00:58:14;12.95;;;10.65;;
53843;SDS011;39744;53.314;5.710;2023-09-08T01:00:40;13.43;;;11.25;;
53843;SDS011;39744;53.314;5.710;2023-09-08T01:03:06;14.15;;;11.02;;
53843;SDS011;39744;53.314;5.710;2023-09-08T01:05:31;17.52;;;11.60;;
53843;SDS011;39744;53.314;5.710;2023-09-08T01:07:57;12.57;;;10.68;;
53843;SDS011;39744;53.314;5.710;2023-09-08T01:10:31;13.68;;;11.32;;
53843;SDS011;39744;53.314;5.710;2023-09-08T01:12:57;13.70;;;11.38;;
53843;SDS011;39744;53.314;5.710;2023-09-08T01:15:22;13.73;;;10.68;;
53843;SDS011;39744;53.314;5.710;2023-09-08T01:17:48;12.43;;;10.80;;
53843;SDS011;39744;53.314;5.710;2023-09-08T01:20:19;14.25;;;11.27;;
53843;SDS011;39744;53.314;5.710;2023-09-08T01:25:26;14.13;;;11.43;;
53843;SDS011;39744;53.314;5.710;2023-09-08T01:27:54;14.77;;;11.55;;
53843;SDS011;39744;53.314;5.710;2023-09-08T01:30:20;14.93;;;11.55;;
53843;SDS011;39744;53.314;5.710;2023-09-08T01:32:48;14.18;;;11.40;;
53843;SDS011;39744;53.314;5.710;2023-09-08T01:35:15;13.98;;;11.48;;
53843;SDS011;39744;53.314;5.710;2023-09-08T01:37:41;13.32;;;11.30;;
53843;SDS011;39744;53.314;5.710;2023-09-08T01:40:09;14.55;;;11.93;;
53843;SDS011;39744;53.314;5.710;2023-09-08T01:42:37;13.07;;;11.10;;
53843;SDS011;39744;53.314;5.710;2023-09-08T01:45:03;15.82;;;11.90;;
53843;SDS011;39744;53.314;5.710;2023-09-08T01:47:30;15.68;;;11.13;;
53843;SDS011;39744;53.314;5.710;2023-09-08T01:49:56;15.73;;;11.48;;
53843;SDS011;39744;53.314;5.710;2023-09-08T01:52:22;13.77;;;11.15;;
53843;SDS011;39744;53.314;5.710;2023-09-08T01:54:47;13.73;;;11.43;;
53843;SDS011;39744;53.314;5.710;2023-09-08T01:57:13;13.75;;;11.75;;
53843;SDS011;39744;53.314;5.710;2023-09-08T01:59:39;13.57;;;10.82;;
53843;SDS011;39744;53.314;5.710;2023-09-08T02:02:05;16.08;;;12.13;;
53843;SDS011;39744;53.314;5.710;2023-09-08T02:04:31;21.48;;;11.90;;
53843;SDS011;39744;53.314;5.710;2023-09-08T02:06:58;13.52;;;12.13;;
53843;SDS011;39744;53.314;5.710;2023-09-08T02:09:33;16.10;;;12.50;;
53843;SDS011;39744;53.314;5.710;2023-09-08T02:12:00;14.68;;;11.60;;
53843;SDS011;39744;53.314;5.710;2023-09-08T02:14:27;15.30;;;11.90;;
53843;SDS011;39744;53.314;5.710;2023-09-08T02:16:55;13.30;;;11.77;;
53843;SDS011;39744;53.314;5.710;2023-09-08T02:19:22;15.07;;;11.93;;
53843;SDS011;39744;53.314;5.710;2023-09-08T02:21:48;16.35;;;12.38;;
53843;SDS011;39744;53.314;5.710;2023-09-08T02:24:14;14.82;;;11.48;;
53843;SDS011;39744;53.314;5.710;2023-09-08T02:26:40;13.98;;;11.82;;
53843;SDS011;39744;53.314;5.710;2023-09-08T02:29:06;14.45;;;12.38;;
53843;SDS011;39744;53.314;5.710;2023-09-08T02:31:32;17.33;;;12.80;;
53843;SDS011;39744;53.314;5.710;2023-09-08T02:33:58;14.57;;;12.88;;
53843;SDS011;39744;53.314;5.710;2023-09-08T02:36:24;14.60;;;12.80;;
53843;SDS011;39744;53.314;5.710;2023-09-08T02:38:53;15.82;;;13.07;;
53843;SDS011;39744;53.314;5.710;2023-09-08T02:41:19;18.10;;;13.13;;
53843;SDS011;39744;53.314;5.710;2023-09-08T02:43:46;15.35;;;13.20;;
53843;SDS011;39744;53.314;5.710;2023-09-08T02:46:11;14.68;;;12.98;;
53843;SDS011;39744;53.314;5.710;2023-09-08T02:48:38;17.60;;;13.68;;
53843;SDS011;39744;53.314;5.710;2023-09-08T02:51:04;15.02;;;13.43;;
53843;SDS011;39744;53.314;5.710;2023-09-08T02:53:29;15.07;;;13.05;;
53843;SDS011;39744;53.314;5.710;2023-09-08T02:55:55;15.02;;;13.43;;
53843;SDS011;39744;53.314;5.710;2023-09-08T02:58:22;14.45;;;12.23;;
53843;SDS011;39744;53.314;5.710;2023-09-08T03:00:48;15.30;;;12.90;;
53843;SDS011;39744;53.314;5.710;2023-09-08T03:03:15;15.18;;;12.60;;
53843;SDS011;39744;53.314;5.710;2023-09-08T03:05:42;14.82;;;12.73;;
53843;SDS011;39744;53.314;5.710;2023-09-08T03:08:08;16.38;;;13.55;;
53843;SDS011;39744;53.314;5.710;2023-09-08T03:10:34;18.15;;;13.20;;
53843;SDS011;39744;53.314;5.710;2023-09-08T03:13:00;14.98;;;12.68;;
53843;SDS011;39744;53.314;5.710;2023-09-08T03:15:26;15.75;;;12.57;;
53843;SDS011;39744;53.314;5.710;2023-09-08T03:17:56;19.90;;;14.05;;
53843;SDS011;39744;53.314;5.710;2023-09-08T03:20:25;16.30;;;13.32;;
53843;SDS011;39744;53.314;5.710;2023-09-08T03:22:53;19.13;;;13.60;;
53843;SDS011;39744;53.314;5.710;2023-09-08T03:25:19;18.52;;;13.75;;
53843;SDS011;39744;53.314;5.710;2023-09-08T03:27:45;17.05;;;13.32;;
53843;SDS011;39744;53.314;5.710;2023-09-08T03:30:11;18.23;;;12.90;;
53843;SDS011;39744;53.314;5.710;2023-09-08T03:32:37;16.90;;;13.85;;
53843;SDS011;39744;53.314;5.710;2023-09-08T03:35:03;16.60;;;13.68;;
53843;SDS011;39744;53.314;5.710;2023-09-08T03:37:32;15.45;;;13.85;;
53843;SDS011;39744;53.314;5.710;2023-09-08T03:39:58;17.25;;;14.20;;
53843;SDS011;39744;53.314;5.710;2023-09-08T03:42:24;16.58;;;14.88;;
53843;SDS011;39744;53.314;5.710;2023-09-08T03:44:49;20.30;;;15.23;;
53843;SDS011;39744;53.314;5.710;2023-09-08T03:47:15;20.70;;;14.40;;
53843;SDS011;39744;53.314;5.710;2023-09-08T03:49:41;18.45;;;15.07;;
53843;SDS011;39744;53.314;5.710;2023-09-08T03:52:06;16.80;;;14.15;;
53843;SDS011;39744;53.314;5.710;2023-09-08T03:54:32;18.15;;;14.23;;
53843;SDS011;39744;53.314;5.710;2023-09-08T03:56:58;17.58;;;14.77;;
53843;SDS011;39744;53.314;5.710;2023-09-08T03:59:24;17.83;;;15.10;;
53843;SDS011;39744;53.314;5.710;2023-09-08T04:01:50;15.95;;;14.05;;
53843;SDS011;39744;53.314;5.710;2023-09-08T04:04:15;19.25;;;14.85;;
53843;SDS011;39744;53.314;5.710;2023-09-08T04:06:43;17.88;;;15.18;;
53843;SDS011;39744;53.314;5.710;2023-09-08T04:09:09;16.10;;;14.40;;
53843;SDS011;39744;53.314;5.710;2023-09-08T04:11:34;17.70;;;14.52;;
53843;SDS011;39744;53.314;5.710;2023-09-08T04:14:00;17.52;;;14.20;;
53843;SDS011;39744;53.314;5.710;2023-09-08T04:16:26;17.38;;;13.75;;
53843;SDS011;39744;53.314;5.710;2023-09-08T04:18:52;16.33;;;14.48;;
53843;SDS011;39744;53.314;5.710;2023-09-08T04:21:17;18.05;;;13.32;;
53843;SDS011;39744;53.314;5.710;2023-09-08T04:23:43;18.50;;;14.75;;
53843;SDS011;39744;53.314;5.710;2023-09-08T04:26:09;18.38;;;14.30;;
53843;SDS011;39744;53.314;5.710;2023-09-08T04:28:35;18.38;;;15.35;;
53843;SDS011;39744;53.314;5.710;2023-09-08T04:31:01;19.30;;;15.02;;
53843;SDS011;39744;53.314;5.710;2023-09-08T04:33:26;16.08;;;13.82;;
53843;SDS011;39744;53.314;5.710;2023-09-08T04:35:54;18.02;;;14.52;;
53843;SDS011;39744;53.314;5.710;2023-09-08T04:38:20;18.13;;;15.20;;
53843;SDS011;39744;53.314;5.710;2023-09-08T04:40:46;18.83;;;15.43;;
53843;SDS011;39744;53.314;5.710;2023-09-08T04:43:11;17.23;;;15.18;;
53843;SDS011;39744;53.314;5.710;2023-09-08T04:45:37;16.70;;;14.68;;
53843;SDS011;39744;53.314;5.710;2023-09-08T04:48:04;18.92;;;14.98;;
53843;SDS011;39744;53.314;5.710;2023-09-08T04:50:30;18.35;;;15.63;;
53843;SDS011;39744;53.314;5.710;2023-09-08T04:52:55;18.25;;;15.30;;
53843;SDS011;39744;53.314;5.710;2023-09-08T04:55:21;18.13;;;15.25;;
53843;SDS011;39744;53.314;5.710;2023-09-08T04:57:47;18.20;;;15.73;;
53843;SDS011;39744;53.314;5.710;2023-09-08T05:00:13;20.05;;;14.57;;
53843;SDS011;39744;53.314;5.710;2023-09-08T05:02:38;19.00;;;15.73;;
53843;SDS011;39744;53.314;5.710;2023-09-08T05:05:04;19.23;;;14.23;;
53843;SDS011;39744;53.314;5.710;2023-09-08T05:07:30;20.92;;;15.35;;
53843;SDS011;39744;53.314;5.710;2023-09-08T05:09:56;16.63;;;14.90;;
53843;SDS011;39744;53.314;5.710;2023-09-08T05:12:22;17.40;;;15.25;;
53843;SDS011;39744;53.314;5.710;2023-09-08T05:14:48;20.88;;;15.93;;
53843;SDS011;39744;53.314;5.710;2023-09-08T05:17:13;20.02;;;15.77;;
53843;SDS011;39744;53.314;5.710;2023-09-08T05:19:39;18.25;;;15.77;;
53843;SDS011;39744;53.314;5.710;2023-09-08T05:22:05;21.17;;;15.38;;
53843;SDS011;39744;53.314;5.710;2023-09-08T05:24:32;19.20;;;15.43;;
53843;SDS011;39744;53.314;5.710;2023-09-08T05:26:57;17.83;;;15.95;;
53843;SDS011;39744;53.314;5.710;2023-09-08T05:29:23;17.77;;;15.07;;
53843;SDS011;39744;53.314;5.710;2023-09-08T05:31:49;20.42;;;16.00;;
53843;SDS011;39744;53.314;5.710;2023-09-08T05:34:15;18.13;;;15.73;;
53843;SDS011;39744;53.314;5.710;2023-09-08T05:36:40;20.50;;;16.65;;
53843;SDS011;39744;53.314;5.710;2023-09-08T05:39:07;22.20;;;16.05;;
53843;SDS011;39744;53.314;5.710;2023-09-08T05:41:33;21.42;;;16.25;;
53843;SDS011;39744;53.314;5.710;2023-09-08T05:43:59;19.95;;;16.48;;
53843;SDS011;39744;53.314;5.710;2023-09-08T05:46:25;18.73;;;16.10;;
53843;SDS011;39744;53.314;5.710;2023-09-08T05:48:50;19.88;;;16.42;;
53843;SDS011;39744;53.314;5.710;2023-09-08T05:51:16;22.25;;;16.40;;
53843;SDS011;39744;53.314;5.710;2023-09-08T05:53:42;17.95;;;15.50;;
53843;SDS011;39744;53.314;5.710;2023-09-08T05:56:07;19.10;;;15.50;;
53843;SDS011;39744;53.314;5.710;2023-09-08T05:58:33;20.02;;;15.60;;
53843;SDS011;39744;53.314;5.710;2023-09-08T06:01:00;18.10;;;16.05;;
53843;SDS011;39744;53.314;5.710;2023-09-08T06:03:27;19.00;;;16.05;;
53843;SDS011;39744;53.314;5.710;2023-09-08T06:05:53;17.65;;;15.68;;
53843;SDS011;39744;53.314;5.710;2023-09-08T06:08:18;19.17;;;15.80;;
53843;SDS011;39744;53.314;5.710;2023-09-08T06:10:44;18.23;;;15.02;;
53843;SDS011;39744;53.314;5.710;2023-09-08T06:13:10;18.50;;;15.45;;
53843;SDS011;39744;53.314;5.710;2023-09-08T06:15:35;24.52;;;15.40;;
53843;SDS011;39744;53.314;5.710;2023-09-08T06:18:01;18.83;;;15.48;;
53843;SDS011;39744;53.314;5.710;2023-09-08T06:20:27;19.85;;;16.08;;
53843;SDS011;39744;53.314;5.710;2023-09-08T06:22:53;17.08;;;15.27;;
53843;SDS011;39744;53.314;5.710;2023-09-08T06:25:19;18.00;;;14.70;;
53843;SDS011;39744;53.314;5.710;2023-09-08T06:27:44;17.98;;;14.70;;
53843;SDS011;39744;53.314;5.710;2023-09-08T06:30:10;21.00;;;14.93;;
53843;SDS011;39744;53.314;5.710;2023-09-08T06:32:38;18.02;;;14.52;;
53843;SDS011;39744;53.314;5.710;2023-09-08T06:35:04;17.00;;;14.13;;
53843;SDS011;39744;53.314;5.710;2023-09-08T06:37:34;17.25;;;14.82;;
53843;SDS011;39744;53.314;5.710;2023-09-08T06:40:04;17.27;;;14.65;;
53843;SDS011;39744;53.314;5.710;2023-09-08T06:42:30;18.15;;;14.32;;
53843;SDS011;39744;53.314;5.710;2023-09-08T06:44:56;17.13;;;14.43;;
53843;SDS011;39744;53.314;5.710;2023-09-08T06:47:22;17.00;;;14.25;;
53843;SDS011;39744;53.314;5.710;2023-09-08T06:49:48;20.30;;;14.07;;
53843;SDS011;39744;53.314;5.710;2023-09-08T06:52:13;18.23;;;14.30;;
53843;SDS011;39744;53.314;5.710;2023-09-08T06:54:39;15.93;;;13.77;;
53843;SDS011;39744;53.314;5.710;2023-09-08T06:57:05;16.80;;;14.00;;
53843;SDS011;39744;53.314;5.710;2023-09-08T06:59:30;16.00;;;13.18;;
53843;SDS011;39744;53.314;5.710;2023-09-08T07:01:56;15.52;;;12.98;;
53843;SDS011;39744;53.314;5.710;2023-09-08T07:04:22;16.50;;;13.07;;
53843;SDS011;39744;53.314;5.710;2023-09-08T07:06:47;15.23;;;12.50;;
53843;SDS011;39744;53.314;5.710;2023-09-08T07:09:15;15.25;;;12.90;;
53843;SDS011;39744;53.314;5.710;2023-09-08T07:11:41;14.07;;;12.10;;
53843;SDS011;39744;53.314;5.710;2023-09-08T07:14:06;13.68;;;12.10;;
53843;SDS011;39744;53.314;5.710;2023-09-08T07:16:32;16.35;;;12.10;;
53843;SDS011;39744;53.314;5.710;2023-09-08T07:18:58;16.85;;;11.85;;
53843;SDS011;39744;53.314;5.710;2023-09-08T07:21:26;15.85;;;12.75;;
53843;SDS011;39744;53.314;5.710;2023-09-08T07:23:51;16.15;;;11.68;;
53843;SDS011;39744;53.314;5.710;2023-09-08T07:26:19;15.65;;;12.18;;
53843;SDS011;39744;53.314;5.710;2023-09-08T07:28:44;16.08;;;11.07;;
53843;SDS011;39744;53.314;5.710;2023-09-08T07:31:10;13.10;;;10.82;;
53843;SDS011;39744;53.314;5.710;2023-09-08T07:33:38;12.95;;;10.57;;
53843;SDS011;39744;53.314;5.710;2023-09-08T07:36:04;16.27;;;11.07;;
53843;SDS011;39744;53.314;5.710;2023-09-08T07:38:30;13.80;;;11.20;;
53843;SDS011;39744;53.314;5.710;2023-09-08T07:40:56;15.88;;;11.60;;
53843;SDS011;39744;53.314;5.710;2023-09-08T07:43:22;14.00;;;10.63;;
53843;SDS011;39744;53.314;5.710;2023-09-08T07:45:48;13.48;;;10.43;;
53843;SDS011;39744;53.314;5.710;2023-09-08T07:48:13;14.90;;;11.02;;
53843;SDS011;39744;53.314;5.710;2023-09-08T07:50:39;11.77;;;9.77;;
53843;SDS011;39744;53.314;5.710;2023-09-08T07:53:04;13.15;;;10.02;;
53843;SDS011;39744;53.314;5.710;2023-09-08T07:55:30;14.98;;;10.30;;
53843;SDS011;39744;53.314;5.710;2023-09-08T07:57:57;13.13;;;10.00;;
53843;SDS011;39744;53.314;5.710;2023-09-08T08:00:23;12.38;;;10.02;;
53843;SDS011;39744;53.314;5.710;2023-09-08T08:02:51;12.38;;;9.55;;
53843;SDS011;39744;53.314;5.710;2023-09-08T08:05:19;13.05;;;8.35;;
53843;SDS011;39744;53.314;5.710;2023-09-08T08:07:45;13.68;;;9.85;;
53843;SDS011;39744;53.314;5.710;2023-09-08T08:10:11;14.52;;;9.45;;
53843;SDS011;39744;53.314;5.710;2023-09-08T08:12:38;11.82;;;8.82;;
53843;SDS011;39744;53.314;5.710;2023-09-08T08:15:04;12.52;;;8.68;;
53843;SDS011;39744;53.314;5.710;2023-09-08T08:17:30;10.65;;;8.30;;
53843;SDS011;39744;53.314;5.710;2023-09-08T08:19:56;11.48;;;8.82;;
53843;SDS011;39744;53.314;5.710;2023-09-08T08:22:31;11.68;;;8.55;;
53843;SDS011;39744;53.314;5.710;2023-09-08T08:24:58;10.48;;;8.73;;
53843;SDS011;39744;53.314;5.710;2023-09-08T08:27:23;9.95;;;8.13;;
53843;SDS011;39744;53.314;5.710;2023-09-08T08:29:49;12.70;;;8.70;;
53843;SDS011;39744;53.314;5.710;2023-09-08T08:32:16;11.07;;;8.32;;
53843;SDS011;39744;53.314;5.710;2023-09-08T08:34:42;12.63;;;8.55;;
53843;SDS011;39744;53.314;5.710;2023-09-08T08:37:07;11.75;;;8.75;;
53843;SDS011;39744;53.314;5.710;2023-09-08T08:39:33;14.02;;;8.50;;
53843;SDS011;39744;53.314;5.710;2023-09-08T08:42:06;11.25;;;7.95;;
53843;SDS011;39744;53.314;5.710;2023-09-08T08:44:32;16.00;;;8.57;;
53843;SDS011;39744;53.314;5.710;2023-09-08T08:47:00;11.13;;;7.60;;
53843;SDS011;39744;53.314;5.710;2023-09-08T08:49:28;9.85;;;8.30;;
53843;SDS011;39744;53.314;5.710;2023-09-08T08:51:56;11.30;;;8.20;;
53843;SDS011;39744;53.314;5.710;2023-09-08T08:54:23;13.30;;;7.97;;
53843;SDS011;39744;53.314;5.710;2023-09-08T08:56:49;10.40;;;7.35;;
53843;SDS011;39744;53.314;5.710;2023-09-08T08:59:16;11.63;;;6.90;;
53843;SDS011;39744;53.314;5.710;2023-09-08T09:01:42;10.02;;;7.82;;
53843;SDS011;39744;53.314;5.710;2023-09-08T09:04:08;11.20;;;7.65;;
53843;SDS011;39744;53.314;5.710;2023-09-08T09:06:35;11.48;;;7.10;;
53843;SDS011;39744;53.314;5.710;2023-09-08T09:09:01;11.90;;;7.30;;
53843;SDS011;39744;53.314;5.710;2023-09-08T09:11:29;9.27;;;7.65;;
53843;SDS011;39744;53.314;5.710;2023-09-08T09:13:56;10.95;;;7.53;;
53843;SDS011;39744;53.314;5.710;2023-09-08T09:16:23;11.38;;;7.13;;
53843;SDS011;39744;53.314;5.710;2023-09-08T09:18:56;10.60;;;7.50;;
53843;SDS011;39744;53.314;5.710;2023-09-08T09:21:23;10.68;;;7.75;;
53843;SDS011;39744;53.314;5.710;2023-09-08T09:24:05;11.25;;;7.85;;
53843;SDS011;39744;53.314;5.710;2023-09-08T09:26:31;16.50;;;7.88;;
53843;SDS011;39744;53.314;5.710;2023-09-08T09:28:57;9.93;;;6.95;;
53843;SDS011;39744;53.314;5.710;2023-09-08T09:31:24;10.70;;;7.70;;
53843;SDS011;39744;53.314;5.710;2023-09-08T09:34:01;9.40;;;7.13;;
53843;SDS011;39744;53.314;5.710;2023-09-08T09:36:30;10.35;;;7.05;;
53843;SDS011;39744;53.314;5.710;2023-09-08T09:38:59;10.75;;;7.05;;
53843;SDS011;39744;53.314;5.710;2023-09-08T09:41:29;9.73;;;6.85;;
53843;SDS011;39744;53.314;5.710;2023-09-08T09:43:56;10.02;;;6.95;;
53843;SDS011;39744;53.314;5.710;2023-09-08T09:46:21;13.88;;;7.70;;
53843;SDS011;39744;53.314;5.710;2023-09-08T09:48:51;12.80;;;7.75;;
53843;SDS011;39744;53.314;5.710;2023-09-08T09:51:21;9.98;;;7.47;;
53843;SDS011;39744;53.314;5.710;2023-09-08T09:53:49;11.07;;;7.50;;
53843;SDS011;39744;53.314;5.710;2023-09-08T09:56:16;10.40;;;7.70;;
53843;SDS011;39744;53.314;5.710;2023-09-08T09:58:43;9.57;;;7.85;;
53843;SDS011;39744;53.314;5.710;2023-09-08T10:01:10;12.57;;;9.60;;
53843;SDS011;39744;53.314;5.710;2023-09-08T10:03:37;18.58;;;10.10;;
53843;SDS011;39744;53.314;5.710;2023-09-08T10:06:04;12.35;;;9.82;;
53843;SDS011;39744;53.314;5.710;2023-09-08T10:08:31;15.52;;;10.88;;
53843;SDS011;39744;53.314;5.710;2023-09-08T10:11:02;13.73;;;11.00;;
53843;SDS011;39744;53.314;5.710;2023-09-08T10:13:33;14.23;;;9.88;;
53843;SDS011;39744;53.314;5.710;2023-09-08T10:16:03;17.30;;;9.93;;
53843;SDS011;39744;53.314;5.710;2023-09-08T10:18:30;13.43;;;10.68;;
53843;SDS011;39744;53.314;5.710;2023-09-08T10:20:59;16.45;;;11.40;;
53843;SDS011;39744;53.314;5.710;2023-09-08T10:23:39;14.15;;;10.50;;
53843;SDS011;39744;53.314;5.710;2023-09-08T10:26:11;15.00;;;11.98;;
53843;SDS011;39744;53.314;5.710;2023-09-08T10:28:37;13.13;;;11.10;;
53843;SDS011;39744;53.314;5.710;2023-09-08T10:31:04;13.82;;;11.68;;
53843;SDS011;39744;53.314;5.710;2023-09-08T10:33:30;16.65;;;11.27;;
53843;SDS011;39744;53.314;5.710;2023-09-08T10:35:57;13.32;;;9.85;;
53843;SDS011;39744;53.314;5.710;2023-09-08T10:38:27;11.85;;;9.00;;
53843;SDS011;39744;53.314;5.710;2023-09-08T10:43:44;14.48;;;9.38;;
53843;SDS011;39744;53.314;5.710;2023-09-08T10:46:21;18.17;;;9.93;;
53843;SDS011;39744;53.314;5.710;2023-09-08T10:48:47;13.13;;;9.07;;
53843;SDS011;39744;53.314;5.710;2023-09-08T10:51:13;14.70;;;9.68;;
53843;SDS011;39744;53.314;5.710;2023-09-08T10:53:40;15.95;;;9.85;;
53843;SDS011;39744;53.314;5.710;2023-09-08T10:56:05;13.23;;;9.38;;
53843;SDS011;39744;53.314;5.710;2023-09-08T10:58:35;12.40;;;10.48;;
53843;SDS011;39744;53.314;5.710;2023-09-08T11:01:03;13.85;;;10.70;;
53843;SDS011;39744;53.314;5.710;2023-09-08T11:06:08;11.80;;;9.30;;
53843;SDS011;39744;53.314;5.710;2023-09-08T11:08:36;12.15;;;9.60;;
53843;SDS011;39744;53.314;5.710;2023-09-08T11:11:10;12.75;;;10.20;;
53843;SDS011;39744;53.314;5.710;2023-09-08T11:13:36;15.48;;;10.48;;
53843;SDS011;39744;53.314;5.710;2023-09-08T11:16:02;17.50;;;10.75;;
53843;SDS011;39744;53.314;5.710;2023-09-08T11:18:28;27.83;;;11.23;;
53843;SDS011;39744;53.314;5.710;2023-09-08T11:20:54;15.98;;;11.30;;
53843;SDS011;39744;53.314;5.710;2023-09-08T11:23:21;12.90;;;9.02;;
53843;SDS011;39744;53.314;5.710;2023-09-08T11:25:47;16.58;;;10.63;;
53843;SDS011;39744;53.314;5.710;2023-09-08T11:28:14;13.95;;;11.18;;
53843;SDS011;39744;53.314;5.710;2023-09-08T11:30:39;15.10;;;9.95;;
53843;SDS011;39744;53.314;5.710;2023-09-08T11:33:15;12.57;;;9.00;;
53843;SDS011;39744;53.314;5.710;2023-09-08T11:35:42;14.30;;;9.02;;
53843;SDS011;39744;53.314;5.710;2023-09-08T11:38:10;13.13;;;9.55;;
53843;SDS011;39744;53.314;5.710;2023-09-08T11:40:36;11.60;;;8.13;;
53843;SDS011;39744;53.314;5.710;2023-09-08T11:43:03;12.23;;;8.25;;
53843;SDS011;39744;53.314;5.710;2023-09-08T11:45:30;12.13;;;7.43;;
53843;SDS011;39744;53.314;5.710;2023-09-08T11:47:56;15.30;;;9.05;;
53843;SDS011;39744;53.314;5.710;2023-09-08T11:50:22;11.23;;;8.40;;
53843;SDS011;39744;53.314;5.710;2023-09-08T11:52:52;13.88;;;8.27;;
53843;SDS011;39744;53.314;5.710;2023-09-08T11:55:19;11.77;;;8.02;;
53843;SDS011;39744;53.314;5.710;2023-09-08T11:57:50;13.57;;;7.20;;
53843;SDS011;39744;53.314;5.710;2023-09-08T12:00:22;10.38;;;7.30;;
53843;SDS011;39744;53.314;5.710;2023-09-08T12:02:48;11.45;;;7.35;;
53843;SDS011;39744;53.314;5.710;2023-09-08T12:05:25;11.32;;;6.78;;
53843;SDS011;39744;53.314;5.710;2023-09-08T12:07:52;9.50;;;7.13;;
53843;SDS011;39744;53.314;5.710;2023-09-08T12:10:19;9.63;;;5.97;;
53843;SDS011;39744;53.314;5.710;2023-09-08T12:12:47;11.70;;;6.93;;
53843;SDS011;39744;53.314;5.710;2023-09-08T12:15:30;11.10;;;6.88;;
53843;SDS011;39744;53.314;5.710;2023-09-08T12:18:04;9.90;;;6.45;;
53843;SDS011;39744;53.314;5.710;2023-09-08T12:20:32;11.07;;;5.67;;
53843;SDS011;39744;53.314;5.710;2023-09-08T12:23:03;11.13;;;7.47;;
53843;SDS011;39744;53.314;5.710;2023-09-08T12:25:30;10.15;;;6.20;;
53843;SDS011;39744;53.314;5.710;2023-09-08T12:28:00;10.50;;;6.28;;
53843;SDS011;39744;53.314;5.710;2023-09-08T12:30:26;8.93;;;5.90;;
53843;SDS011;39744;53.314;5.710;2023-09-08T12:32:58;8.85;;;5.55;;
53843;SDS011;39744;53.314;5.710;2023-09-08T12:35:24;13.07;;;5.60;;
53843;SDS011;39744;53.314;5.710;2023-09-08T12:38:01;9.13;;;5.35;;
53843;SDS011;39744;53.314;5.710;2023-09-08T12:40:28;6.95;;;4.93;;
53843;SDS011;39744;53.314;5.710;2023-09-08T12:42:56;8.88;;;5.53;;
53843;SDS011;39744;53.314;5.710;2023-09-08T12:45:23;8.55;;;4.95;;
53843;SDS011;39744;53.314;5.710;2023-09-08T12:47:50;8.07;;;5.50;;
53843;SDS011;39744;53.314;5.710;2023-09-08T12:50:16;8.65;;;5.80;;
53843;SDS011;39744;53.314;5.710;2023-09-08T12:52:42;6.53;;;4.70;;
53843;SDS011;39744;53.314;5.710;2023-09-08T12:55:08;6.20;;;4.70;;
53843;SDS011;39744;53.314;5.710;2023-09-08T12:57:35;10.07;;;5.38;;
53843;SDS011;39744;53.314;5.710;2023-09-08T13:00:01;8.13;;;5.60;;
53843;SDS011;39744;53.314;5.710;2023-09-08T13:02:30;8.52;;;5.15;;
53843;SDS011;39744;53.314;5.710;2023-09-08T13:04:56;7.18;;;4.97;;
53843;SDS011;39744;53.314;5.710;2023-09-08T13:07:23;6.47;;;5.32;;
53843;SDS011;39744;53.314;5.710;2023-09-08T13:09:49;7.75;;;5.18;;
53843;SDS011;39744;53.314;5.710;2023-09-08T13:12:18;7.90;;;5.00;;
53843;SDS011;39744;53.314;5.710;2023-09-08T13:14:44;8.45;;;4.85;;
53843;SDS011;39744;53.314;5.710;2023-09-08T13:17:10;7.40;;;5.63;;
53843;SDS011;39744;53.314;5.710;2023-09-08T13:19:36;7.30;;;4.88;;
53843;SDS011;39744;53.314;5.710;2023-09-08T13:22:03;8.65;;;5.30;;
53843;SDS011;39744;53.314;5.710;2023-09-08T13:24:29;7.22;;;5.25;;
53843;SDS011;39744;53.314;5.710;2023-09-08T13:26:55;6.82;;;5.10;;
53843;SDS011;39744;53.314;5.710;2023-09-08T13:29:21;11.05;;;5.88;;
53843;SDS011;39744;53.314;5.710;2023-09-08T13:31:47;7.95;;;4.78;;
53843;SDS011;39744;53.314;5.710;2023-09-08T13:34:13;8.90;;;4.88;;
53843;SDS011;39744;53.314;5.710;2023-09-08T13:36:38;8.38;;;5.10;;
53843;SDS011;39744;53.314;5.710;2023-09-08T13:39:04;6.97;;;4.70;;
53843;SDS011;39744;53.314;5.710;2023-09-08T13:44:21;13.50;;;11.75;;
53843;SDS011;39744;53.314;5.710;2023-09-08T13:46:50;11.93;;;10.63;;
53843;SDS011;39744;53.314;5.710;2023-09-08T13:49:16;14.02;;;11.38;;
53843;SDS011;39744;53.314;5.710;2023-09-08T13:51:42;12.27;;;10.98;;
53843;SDS011;39744;53.314;5.710;2023-09-08T13:54:09;11.80;;;9.40;;
53843;SDS011;39744;53.314;5.710;2023-09-08T13:56:34;14.30;;;11.80;;
53843;SDS011;39744;53.314;5.710;2023-09-08T13:59:04;12.82;;;11.32;;
53843;SDS011;39744;53.314;5.710;2023-09-08T14:01:29;13.50;;;11.52;;
53843;SDS011;39744;53.314;5.710;2023-09-08T14:03:56;14.15;;;11.40;;
53843;SDS011;39744;53.314;5.710;2023-09-08T14:06:22;12.40;;;8.93;;
53843;SDS011;39744;53.314;5.710;2023-09-08T14:08:49;13.70;;;9.10;;
53843;SDS011;39744;53.314;5.710;2023-09-08T14:11:15;12.50;;;9.57;;
53843;SDS011;39744;53.314;5.710;2023-09-08T14:13:40;11.23;;;9.52;;
53843;SDS011;39744;53.314;5.710;2023-09-08T14:16:08;14.10;;;10.77;;
53843;SDS011;39744;53.314;5.710;2023-09-08T14:18:34;14.80;;;11.38;;
53843;SDS011;39744;53.314;5.710;2023-09-08T14:20:59;12.77;;;10.02;;
53843;SDS011;39744;53.314;5.710;2023-09-08T14:23:25;16.65;;;9.25;;
53843;SDS011;39744;53.314;5.710;2023-09-08T14:25:51;12.13;;;9.90;;
53843;SDS011;39744;53.314;5.710;2023-09-08T14:28:17;12.07;;;8.77;;
53843;SDS011;39744;53.314;5.710;2023-09-08T14:30:43;11.02;;;9.70;;
53843;SDS011;39744;53.314;5.710;2023-09-08T14:33:09;11.65;;;10.38;;
53843;SDS011;39744;53.314;5.710;2023-09-08T14:35:35;15.35;;;9.00;;
53843;SDS011;39744;53.314;5.710;2023-09-08T14:38:05;12.38;;;9.57;;